• Join FlightAware (Why Join?)
  • Login
  • US Flag 
09:39AM EST


 

Airport Tracker/Info


-or-


 

Live Flight TrackerFlight Track Log ✈ SWA303 ✈ 21-May-2013 ✈ KDEN - KIAD

Flight Track Log - Related Links

Times and Time Zones

All times are in EDT time to prevent confusion due to time zone crossing. See the SWA303 flight status page for this flight to view local times or setup timezone preferences in your user account.

Time Position Orientation Groundspeed Altitude Reporting Facility
EDT Latitude Longitude Course Direction KTS MPH feet Rate Location/Type
03:54PM 39.9333 -104.6333 84° East 229 264 7,400  Level Denver TRACON
03:55PM 39.9500 -104.5500 75° East 300 345 9,400 2,640 Climbing Denver TRACON
03:56PM 39.9081 -104.4244 113° Southeast 313 360 13,000 2,760 Climbing Denver Center
03:57PM 39.8814 -104.3069 106° East 339 390 15,300 1,980 Climbing Denver Center
03:58PM 39.8819 -104.1603 90° East 383 441 17,500 2,340 Climbing Denver Center
03:59PM 39.9387 -103.7153 84° East  Level Estimated
03:59PM 39.8817 -103.9767 90° East 412 474 20,600  Level Denver Center
04:00PM 39.8828 -103.8222 89° East 428 493 23,100 2,340 Climbing Denver Center
04:01PM 39.8903 -103.6669 86° East 422 486 25,500 2,220 Climbing Denver Center
04:02PM 39.9100 -103.4961 81° East 438 504 27,700 1,920 Climbing Denver Center
04:03PM 39.9281 -103.3453 81° East 441 507 29,500 1,860 Climbing Denver Center
04:04PM 39.9483 -103.1644 82° East 449 517 31,600 1,740 Climbing Denver Center
04:05PM 39.9653 -103.0122 82° East 445 512 33,200 1,260 Climbing Denver Center
04:06PM 39.9817 -102.8578 82° East 449 517 34,300 1,020 Climbing Denver Center
04:07PM 40.0006 -102.6750 82° East 456 525 35,400 1,140 Climbing Denver Center
04:08PM 40.0172 -102.5161 82° East 461 531 36,700 720 Climbing Denver Center
04:09PM 40.0369 -102.3303 82° East 464 534 37,000 120 Climbing Denver Center
04:10PM 40.0528 -102.1728 82° East 460 529 37,000  Level Denver Center
04:11PM 40.0717 -101.9881 82° East 462 532 37,000  Level Denver Center
04:12PM 40.0881 -101.8311 82° East 458 527 37,000  Level Denver Center
04:13PM 40.1053 -101.6492 83° East 456 525 37,000  Level Denver Center
04:15PM 40.1203 -101.4906 83° East 459 528 37,000  Level Denver Center
04:16PM 40.1408 -101.2814 83° East 458 527 37,000  Level Denver Center
04:17PM 40.1558 -101.1233 83° East 459 528 37,000  Level Denver Center
04:18PM 40.1589 -100.9364 89° East 460 529 37,000  Level Denver Center
04:19PM 40.1619 -100.7758 89° East 463 533 37,000  Level Denver Center
04:20PM 40.1653 -100.5883 89° East 463 533 37,000  Level Denver Center
04:21PM 40.1683 -100.4261 89° East 468 539 37,000  Level Denver Center
04:22PM 40.1706 -100.2378 89° East 467 537 37,000  Level Denver Center
04:23PM 40.1731 -100.0753 89° East 468 539 37,000  Level Denver Center
04:24PM 40.1753 -99.8906 89° East 469 540 37,000  Level Denver Center
04:25PM 40.1775 -99.6894 89° East 462 532 37,000  Level Denver Center
04:26PM 40.1789 -99.5222 89° East 461 531 37,000  Level Denver Center
04:27PM 40.1800 -99.3531 89° East 466 536 37,000  Level Denver Center
04:28PM 40.1811 -99.1828 89° East 470 541 37,000  Level Denver Center
04:29PM 40.1817 -99.0117 90° East 474 545 37,000  Level Denver Center
04:30PM 40.1831 -98.8064 89° East 472 543 37,000  Level Denver Center
04:31PM 40.1825 -98.6675 90° East 479 551 37,000 240 Level Minneapolis Center
04:32PM 40.1828 -98.4950 90° East 478 550 37,500 720 Climbing Minneapolis Center
04:33PM 40.1822 -98.3225 90° East 477 549 38,600 720 Climbing Minneapolis Center
04:34PM 40.1817 -98.1506 90° East 475 547 39,000 180 Climbing Minneapolis Center
04:35PM 40.1806 -97.9761 90° East 479 551 39,000  Level Minneapolis Center
04:36PM 40.1800 -97.8033 90° East 479 551 39,000  Level Minneapolis Center
04:37PM 40.1783 -97.5928 91° East 482 555 39,000  Level Minneapolis Center
04:38PM 40.1758 -97.3825 91° East 483 556 39,000  Level Minneapolis Center
04:40PM 40.1747 -97.2128 90° East 480 552 39,000  Level Minneapolis Center
04:41PM 40.1714 -97.0392 91° East 479 551 39,000  Level Minneapolis Center
04:42PM 40.1697 -96.8675 91° East 476 548 39,000  Level Minneapolis Center
04:43PM 40.1664 -96.6603 91° East 475 547 39,000  Level Minneapolis Center
04:44PM 40.1631 -96.4856 91° East 480 552 39,000  Level Minneapolis Center
04:45PM 40.1597 -96.3114 91° East 482 555 39,000  Level Minneapolis Center
04:46PM 40.1561 -96.1369 91° East 483 556 39,000  Level Minneapolis Center
04:47PM 40.1519 -95.9606 92° East 486 559 39,000  Level Minneapolis Center
04:48PM 40.1481 -95.7828 92° East 491 565 39,000  Level Minneapolis Center
04:49PM 40.1439 -95.6061 92° East 489 563 39,000  Level Minneapolis Center
04:50PM 40.1389 -95.3947 92° East 488 562 39,000  Level Minneapolis Center
04:51PM 40.1339 -95.2203 92° East 485 558 39,000  Level Minneapolis Center
04:52PM 40.1289 -95.0453 92° East 483 556 39,000  Level Minneapolis Center
04:53PM 40.1239 -94.9106 93° East 486 559 39,000  Level Kansas City Center
04:54PM 40.1178 -94.7158 92° East 482 555 39,000 -360 Level Kansas City Center
04:56PM 40.1053 -94.3517 92° East 481 554 37,900 -660 Descending Kansas City Center
04:57PM 40.0981 -94.1822 93° East 487 560 37,000 -960 Descending Kansas City Center
04:58PM 40.0892 -93.9969 94° East 489 563 36,000 -960 Descending Kansas City Center
04:59PM 40.0819 -93.8250 93° East 485 558 35,100 -540 Descending Kansas City Center
05:00PM 40.0761 -93.6517 92° East 483 556 35,000 -60 Descending Kansas City Center
05:01PM 40.0689 -93.4803 93° East 479 551 35,000  Level Kansas City Center
05:02PM 40.0603 -93.2736 93° East 480 552 35,000  Level Kansas City Center
05:03PM 40.0517 -93.1014 94° East 482 555 35,000  Level Kansas City Center
05:04PM 40.0431 -92.9311 94° East 478 550 35,000  Level Kansas City Center
05:05PM 40.0353 -92.7622 93° East 478 550 35,000  Level Kansas City Center
05:06PM 40.0267 -92.5583 93° East 479 551 35,000  Level Kansas City Center
05:07PM 40.0167 -92.3894 94° East 478 550 35,000  Level Kansas City Center
05:08PM 40.0083 -92.2206 94° East 477 549 35,000 -60 Level Kansas City Center
05:09PM 39.9975 -92.0497 95° East 478 550 34,900  Descending Kansas City Center
05:10PM 39.9864 -91.8439 94° East 480 552 35,000  Climbing Kansas City Center
05:11PM 39.9764 -91.6719 94° East 481 554 35,000  Level Kansas City Center
05:12PM 39.9667 -91.4989 94° East 482 555 35,000  Level Kansas City Center
05:13PM 39.9550 -91.3292 95° East 479 551 35,000  Level Kansas City Center
05:14PM 39.9431 -91.1572 95° East 479 551 35,000  Level Kansas City Center
05:15PM 39.9306 -90.9611 95° East 479 551 35,000  Level Kansas City Center
05:16PM 39.9206 -90.7892 94° East 478 550 35,000  Level Kansas City Center
05:17PM 39.9086 -90.6192 95° East 476 548 35,000  Level Kansas City Center
05:18PM 39.8969 -90.4494 95° East 474 545 35,000  Level Kansas City Center
05:20PM 39.8819 -90.2431 95° East 478 550 35,000  Level Kansas City Center
05:21PM 39.8686 -90.0703 96° East 481 554 35,000  Level Kansas City Center
05:22PM 39.8558 -89.8967 95° East 484 557 35,000  Level Kansas City Center
05:23PM 39.8433 -89.7258 95° East 480 552 35,000  Level Kansas City Center
05:24PM 39.8403 -89.5511 91° East 488 562 35,000  Level Kansas City Center
05:25PM 39.8433 -89.3400 89° East 489 563 35,000  Level Kansas City Center
05:26PM 39.8547 -89.1647 85° East 488 562 35,000  Level Kansas City Center
05:27PM 39.8647 -88.9889 86° East 490 564 35,000  Level Kansas City Center
05:28PM 39.8744 -88.8142 86° East 487 560 35,000  Level Kansas City Center
05:29PM 39.8836 -88.6389 86° East 487 560 35,000  Level Kansas City Center
05:30PM 39.8947 -88.4639 85° East 486 559 35,000  Level Kansas City Center
05:31PM 39.9053 -88.2561 86° East 482 555 35,000  Level Kansas City Center
05:32PM 39.9108 -88.0867 87° East 475 547 35,000  Level Kansas City Center
05:33PM 39.9153 -87.9653 87° East 472 543 35,000  Level Indianapolis Center
05:34PM 39.9231 -87.7958 87° East 472 543 35,000  Level Indianapolis Center
05:35PM 39.9308 -87.6264 87° East 471 542 35,000  Level Indianapolis Center
05:36PM 39.9369 -87.4547 87° East 473 544 35,000  Level Indianapolis Center
05:37PM 39.9444 -87.2817 87° East 479 551 35,000  Level Indianapolis Center
05:38PM 39.9511 -87.1086 87° East 478 550 35,000  Level Indianapolis Center
05:39PM 39.9581 -86.9367 87° East 476 548 35,000  Level Indianapolis Center
05:40PM 39.9653 -86.7317 87° East 473 544 35,000  Level Indianapolis Center
05:41PM 39.9711 -86.5603 87° East 471 542 35,000  Level Indianapolis Center
05:42PM 39.9764 -86.3886 88° East 469 540 35,000  Level Indianapolis Center
05:43PM 39.9822 -86.2167 87° East 468 539 35,000  Level Indianapolis Center
05:44PM 39.9872 -86.0458 88° East 468 539 35,000  Level Indianapolis Center
05:45PM 39.9908 -85.8769 88° East 464 534 35,000  Level Indianapolis Center
05:46PM 39.9950 -85.7089 88° East 463 533 35,000  Level Indianapolis Center
05:47PM 39.9992 -85.5425 88° East 461 531 35,000  Level Indianapolis Center
05:48PM 40.0033 -85.3761 88° East 460 529 35,000  Level Indianapolis Center
05:49PM 40.0067 -85.1775 89° East 457 526 35,000  Level Indianapolis Center
05:50PM 40.0103 -85.0119 88° East 457 526 35,000  Level Indianapolis Center
05:51PM 40.0133 -84.8583 88° East 454 522 35,000  Level Indianapolis Center
05:52PM 40.0153 -84.6925 89° East 452 520 35,000  Level Indianapolis Center
05:53PM 40.0197 -84.4972 88° East 459 528 35,000  Level Indianapolis Center
05:54PM 40.0231 -84.3303 88° East 456 525 35,000  Level Indianapolis Center
05:55PM 40.0242 -84.1611 89° East 461 531 35,000  Level Indianapolis Center
05:56PM 40.0264 -83.9933 89° East 459 528 35,000  Level Indianapolis Center
05:57PM 40.0283 -83.8253 89° East 458 527 35,000  Level Indianapolis Center
05:58PM 40.0297 -83.6556 89° East 458 527 35,000  Level Indianapolis Center
05:59PM 40.0308 -83.4836 89° East 461 531 35,000  Level Indianapolis Center
06:00PM 40.0314 -83.3111 90° East 465 535 35,000  Level Indianapolis Center
06:01PM 40.0364 -83.1397 88° East 464 534 35,000  Level Indianapolis Center
06:03PM 40.0553 -82.9719 82° East 463 533 35,000  Level Indianapolis Center
06:04PM 40.0736 -82.8042 82° East 462 532 35,000  Level Indianapolis Center
06:05PM 40.0906 -82.6356 82° East 464 534 35,000  Level Indianapolis Center
06:06PM 40.1108 -82.4386 82° East 466 536 35,000  Level Indianapolis Center
06:07PM 40.1078 -82.2694 91° East 461 531 35,000  Level Indianapolis Center
06:08PM 40.0972 -82.1011 95° East 460 529 35,000  Level Indianapolis Center
06:09PM 40.0892 -81.9322 94° East 463 533 35,000  Level Indianapolis Center
06:10PM 40.0775 -81.7633 95° East 463 533 35,000  Level Indianapolis Center
06:11PM 40.0333 -81.5889 108° East 460 529 35,000  Level Indianapolis Center
06:12PM 39.9936 -81.4300 108° East 459 528 35,000  Level Indianapolis Center
06:13PM 39.9531 -81.2697 108° East 458 527 35,000  Level Indianapolis Center
06:14PM 39.9136 -81.1114 108° East 457 526 35,000  Level Indianapolis Center
06:15PM 39.8725 -80.9525 109° East 459 528 35,000  Level Indianapolis Center
06:16PM 39.8331 -80.7956 108° East 456 525 35,000  Level Indianapolis Center
06:17PM 39.7928 -80.6386 108° East 455 524 35,000  Level Indianapolis Center
06:18PM 39.7508 -80.4825 109° East 454 522 35,000  Level Indianapolis Center
06:19PM 39.7014 -80.2939 109° East 457 526 35,000  Level Indianapolis Center
06:19PM 39.6956 -80.2675 106° East 452 520 35,000 -240 Level Cleveland Center
06:21PM 39.6250 -79.9939 108° East 459 528 34,500 -1,200 Descending Washington Center
06:22PM 39.5844 -79.8433 109° East 454 522 31,700 -2,640 Descending Washington Center
06:23PM 39.5419 -79.6903 110° East 454 522 29,300 -2,340 Descending Washington Center
06:24PM 39.5050 -79.5428 108° East 449 517 27,100 -1,140 Descending Washington Center
06:25PM 39.4767 -79.3906 104° East 443 510 27,000 -1,020 Descending Washington Center
06:26PM 39.4425 -79.2194 104° East 438 504 25,100 -2,040 Descending Washington Center
06:27PM 39.4153 -79.0758 104° East 438 504 23,000 -2,220 Descending Washington Center
06:28PM 39.3903 -78.9322 103° East 418 481 20,800 -2,160 Descending Washington Center
06:29PM 39.3647 -78.7942 103° East 407 468 18,700 -2,100 Descending Washington Center
06:30PM 39.3433 -78.6617 102° East 390 449 16,700 -2,040 Descending Washington Center
06:31PM 39.3175 -78.5292 104° East 383 441 14,700 -1,920 Descending Washington Center
06:32PM 39.2953 -78.4022 103° East 371 427 12,800 -1,980 Descending Washington Center
06:33PM 39.2519 -78.2933 117° Southeast 358 412 10,800 -1,500 Descending Washington Center
06:34PM 39.2483 -78.1778 92° East 333 383 9,900 -1,140 Descending Washington Center
06:35PM 39.2444 -78.0681 93° East 317 365 8,600 -1,500 Descending Washington Center
06:36PM 39.2425 -77.9606 91° East 304 350 7,000 -1,500 Descending Washington Center
06:37PM 39.2319 -77.8558 97° East 299 344 5,700 -900 Descending Washington Center
06:39PM 39.2167 -77.6167 95° East 271 312 4,000 -540 Descending Potomac TRACON
06:40PM 39.2000 -77.5167 102° East 263 303 4,000 -240 Level Potomac TRACON
06:41PM 39.1667 -77.4667 131° Southeast 200 230 3,600 -600 Descending Potomac TRACON
06:43PM 39.1167 -77.4333 153° Southeast 181 208 2,800 -600 Descending Potomac TRACON
06:43PM 39.0667 -77.4333 180° South 182 209 2,400 -660 Descending Potomac TRACON
06:45PM 39.0167 -77.4333 180° South 154 177 1,500 -780 Descending Potomac TRACON
06:46PM 38.9833 -77.4333 180° South 137 158 800 -720 Descending Potomac TRACON
06:48PM 38.9474 -77.4599 165° South  Level Estimated
06:55PM 38.9474 -77.4599 165° South  Level Estimated
06:56PM 38.9474 -77.4599 165° South  Level Estimated